| Date | Time | Temp. (oF) | Dew Point (oF) | Rel. Hum. (%) | Press. (in.) | Wind Dir. (deg.) | Wind Speed (mph) | Hourly Rainfall (i n.) |
|
|---|---|---|---|---|---|---|---|---|---|
| 1 | 07/07 | 24:00 | 83 | 68 | 61 | 29.96 | 270 | 2 | 0.00 |
| 2 | 07/06 | 23:00 | 84 | 67 | 58 | 29.97 | 270 | 0 | 0.00 |
| 3 | 07/06 | 22:00 | 85 | 66 | 55 | 29.98 | 270 | 1 | 0.00 |
| 4 | 07/06 | 21:00 | 87 | 67 | 53 | 29.97 | 310 | 1 | 0.00 |
| 5 | 07/06 | 20:00 | 90 | 68 | 50 | 29.95 | 310 | 1 | 0.00 |
| 6 | 07/06 | 19:00 | 92 | 69 | 48 | 29.95 | 310 | 2 | 0.00 |
| 7 | 07/06 | 18:00 | 94 | 70 | 47 | 29.96 | 290 | 6 | 0.00 |
| 8 | 07/06 | 17:00 | 95 | 72 | 48 | 29.99 | 310 | 10 | 0.00 |
| 9 | 07/06 | 16:00 | 96 | 72 | 47 | 30.00 | 100 | 6 | 0.00 |
| 10 | 07/06 | 15:00 | 97 | 72 | 46 | 30.00 | 270 | 6 | 0.00 |
| 11 | 07/06 | 14:00 | 98 | 73 | 46 | 30.01 | 270 | 6 | 0.00 |
| 12 | 07/06 | 13:00 | 97 | 72 | 46 | 30.03 | 270 | 12 | 0.00 |
| 13 | 07/06 | 12:00 | 96 | 73 | 49 | 30.05 | 280 | 10 | 0.00 |
| 14 | 07/06 | 11:00 | 93 | 72 | 52 | 30.07 | 310 | 9 | 0.00 |
| 15 | 07/06 | 10:00 | 86 | 73 | 66 | 30.09 | 300 | 1 | 0.00 |
| 16 | 07/06 | 09:00 | 82 | 73 | 75 | 30.10 | 270 | 6 | 0.00 |
| 17 | 07/06 | 08:00 | 78 | 72 | 83 | 30.09 | 270 | 0 | 0.00 |
| 18 | 07/06 | 07:00 | 75 | 69 | 84 | 30.10 | 270 | 0 | 0.00 |
| 19 | 07/06 | 06:00 | 75 | 69 | 82 | 30.16 | 270 | 0 | 0.00 |
| 20 | 07/06 | 05:00 | 76 | 68 | 79 | 30.13 | 270 | 0 | 0.00 |
| 21 | 07/06 | 04:00 | 76 | 68 | 77 | 30.09 | 270 | 0 | 0.00 |
| 22 | 07/06 | 03:00 | 77 | 69 | 77 | 30.05 | 270 | 0 | 0.00 |
| 23 | 07/06 | 02:00 | 78 | 68 | 73 | 30.07 | 270 | 0 | 0.00 |
| 24 | 07/06 | 01:00 | 79 | 67 | 69 | 30.09 | 270 | 0 | 0.00 |